Time;durP1;ratioP1;P1;durP2;ratioP2;P2;SDS_P1;SDS_P2;PMS_P1;PMS_P2;Temp;Humidity;BMP_temperature;BMP_pressure;BME280_temperature;BME280_humidity;BME280_pressure;Samples;Min_cycle;Max_cycle;Signal;HPM_P1;HPM_P2
2022/03/29 00:01:22;;;;;;;58.65;22.92;;;;;;;11.10;61.73;101027.34;4959918;28;20046;-86
2022/03/29 00:03:48;;;;;;;60.17;21.13;;;;;;;11.07;61.54;101024.06;4977134;28;20035;-86
2022/03/29 00:06:13;;;;;;;54.67;21.60;;;;;;;10.91;61.60;101001.03;4977254;28;20022;-84
2022/03/29 00:08:39;;;;;;;45.78;21.27;;;;;;;10.91;61.65;101000.16;4975065;28;20054;-86
2022/03/29 00:11:04;;;;;;;48.33;21.33;;;;;;;11.00;61.47;101014.75;4976911;28;20022;-85
2022/03/29 00:13:31;;;;;;;48.20;24.13;;;;;;;10.74;61.76;100968.31;4976809;28;20030;-85
2022/03/29 00:22:40;;;;;;;43.58;21.58;;;;;;;10.94;61.70;100983.78;4984570;28;20046;-85
2022/03/29 00:25:07;;;;;;;52.50;24.48;;;;;;;10.78;61.43;100962.56;4992692;28;20023;-84
2022/03/29 00:27:34;;;;;;;54.30;23.55;;;;;;;10.92;61.44;100983.88;4993167;28;20037;-84
2022/03/29 00:29:59;;;;;;;49.22;22.60;;;;;;;10.82;62.03;100952.44;4985486;28;20090;-84
2022/03/29 00:32:25;;;;;;;59.17;22.65;;;;;;;10.83;61.83;100968.44;4975946;28;20023;-85
2022/03/29 00:34:50;;;;;;;49.80;24.85;;;;;;;10.62;61.83;100935.13;4976802;28;20118;-86
2022/03/29 00:37:16;;;;;;;56.17;24.67;;;;;;;10.54;62.08;100915.19;4981441;28;20031;-86
2022/03/29 00:39:42;;;;;;;59.20;24.17;;;;;;;10.77;62.02;100954.63;4976261;28;20498;-85
2022/03/29 00:42:07;;;;;;;50.25;23.45;;;;;;;10.80;62.22;100960.63;4975410;28;20050;-86
2022/03/29 00:44:35;;;;;;;48.53;24.05;;;;;;;10.67;61.88;100938.31;4975738;28;20452;-84
2022/03/29 00:47:02;;;;;;;63.25;25.02;;;;;;;10.46;62.34;100902.31;4974077;28;20026;-85
2022/03/29 00:49:28;;;;;;;50.35;24.30;;;;;;;10.74;62.25;100949.47;4974683;28;20027;-85
2022/03/29 00:51:58;;;;;;;48.92;24.02;;;;;;;10.46;62.37;100899.63;4974513;28;20026;-86
2022/03/29 00:54:29;;;;;;;56.60;24.10;;;;;;;10.75;62.41;100945.81;4975993;28;20469;-84
2022/03/29 00:56:57;;;;;;;42.78;24.17;;;;;;;10.72;62.39;100936.16;4974385;28;20053;-86
2022/03/29 00:59:24;;;;;;;51.75;25.38;;;;;;;10.56;62.58;100906.03;4975937;28;20386;-86
2022/03/29 01:01:50;;;;;;;54.38;24.83;;;;;;;10.28;62.60;100866.06;4974524;28;20022;-84
2022/03/29 01:04:15;;;;;;;49.65;24.40;;;;;;;10.41;62.38;100883.00;4975371;28;20023;-86
2022/03/29 01:06:43;;;;;;;57.95;24.65;;;;;;;10.55;62.40;100898.09;4976214;28;20034;-86
2022/03/29 01:09:08;;;;;;;54.10;25.45;;;;;;;10.41;62.72;100876.75;4986699;28;20065;-86
2022/03/29 01:11:35;;;;;;;46.05;23.50;;;;;;;10.50;62.57;100887.66;4985632;28;20038;-85
2022/03/29 01:14:00;;;;;;;58.33;23.75;;;;;;;10.48;62.43;100884.25;4989373;28;20058;-85
2022/03/29 01:19:12;;;;;;;62.50;25.05;;;;;;;10.69;62.71;100901.41;4975827;28;20097;-85
2022/03/29 01:21:41;;;;;;;69.03;25.75;;;;;;;10.45;62.33;100862.97;4975065;28;20027;-85
2022/03/29 01:24:08;;;;;;;48.63;23.75;;;;;;;10.45;62.24;100887.19;4975268;28;20031;-85
2022/03/29 01:26:35;;;;;;;57.83;25.35;;;;;;;10.45;62.59;100884.50;4975348;28;20054;-85
2022/03/29 01:29:01;;;;;;;49.90;24.92;;;;;;;10.58;62.71;100897.84;4975811;28;20022;-86
2022/03/29 01:31:28;;;;;;;46.65;24.05;;;;;;;10.68;62.27;100894.31;4974227;28;20073;-86
2022/03/29 01:33:56;;;;;;;55.45;26.17;;;;;;;10.70;62.29;100884.28;4975112;28;20408;-83
2022/03/29 01:36:21;;;;;;;50.33;24.90;;;;;;;10.72;62.65;100881.50;4974422;28;20026;-84
2022/03/29 01:38:47;;;;;;;49.58;25.83;;;;;;;10.67;62.66;100863.00;4975668;28;20408;-87
2022/03/29 01:41:13;;;;;;;55.55;26.70;;;;;;;10.25;62.66;100788.38;4975808;28;20051;-85
2022/03/29 01:43:38;;;;;;;48.85;23.35;;;;;;;10.49;63.08;100832.16;4976127;28;20019;-84
2022/03/29 01:46:07;;;;;;;51.63;24.15;;;;;;;10.69;62.90;100860.22;4976337;28;20034;-84
2022/03/29 01:48:33;;;;;;;54.90;26.23;;;;;;;10.74;62.90;100864.25;4975722;28;20026;-85
2022/03/29 01:50:58;;;;;;;52.85;24.92;;;;;;;10.69;62.84;100860.22;4976375;28;20027;-85
2022/03/29 01:53:26;;;;;;;70.25;26.08;;;;;;;10.59;62.91;100827.78;4976441;28;20027;-84
2022/03/29 01:55:59;;;;;;;52.50;23.20;;;;;;;10.71;62.84;100859.09;4962327;28;20412;-83
2022/03/29 01:58:31;;;;;;;61.10;27.10;;;;;;;10.46;62.94;100818.13;4962330;28;20026;-85
2022/03/29 02:00:58;;;;;;;47.50;23.42;;;;;;;10.80;63.04;100853.00;4985239;28;20035;-85
2022/03/29 02:03:23;;;;;;;54.72;24.55;;;;;;;10.60;63.03;100802.63;4970888;28;20034;-86
2022/03/29 02:05:49;;;;;;;48.95;25.65;;;;;;;10.58;62.95;100809.09;4986208;28;20027;-85
2022/03/29 02:08:16;;;;;;;56.40;23.95;;;;;;;10.84;62.81;100853.63;4992478;28;20026;-83
2022/03/29 02:10:42;;;;;;;56.85;23.92;;;;;;;10.66;63.18;100806.66;4978475;28;20058;-85
2022/03/29 02:13:11;;;;;;;53.58;21.95;;;;;;;10.70;62.97;100808.97;4975327;28;20046;-87
2022/03/29 02:15:40;;;;;;;50.47;23.45;;;;;;;10.67;63.72;100811.06;4957872;28;20027;-86
2022/03/29 02:18:06;;;;;;;54.20;23.20;;;;;;;10.62;63.63;100830.22;4957762;28;20053;-86
2022/03/29 02:20:32;;;;;;;45.65;22.73;;;;;;;10.62;64.58;100838.31;4975005;28;20040;-85
2022/03/29 02:23:06;;;;;;;64.53;23.55;;;;;;;10.59;64.73;100825.09;4975250;28;20031;-86
2022/03/29 02:25:33;;;;;;;48.15;24.67;;;;;;;10.50;65.14;100817.75;4975107;28;20089;-86
2022/03/29 02:27:59;;;;;;;66.80;29.60;;;;;;;10.57;64.97;100827.06;4974901;28;20066;-86
2022/03/29 02:30:25;;;;;;;51.67;25.27;;;;;;;10.63;65.44;100814.97;4973448;28;20085;-86
2022/03/29 02:32:51;;;;;;;46.72;26.05;;;;;;;10.57;65.79;100802.84;4973487;28;20048;-85
2022/03/29 02:35:16;;;;;;;53.25;26.27;;;;;;;10.42;65.21;100758.34;4975317;28;20031;-85
2022/03/29 02:37:42;;;;;;;56.05;25.45;;;;;;;10.49;65.04;100756.88;4975673;28;20101;-85
2022/03/29 02:40:09;;;;;;;50.90;25.30;;;;;;;10.86;64.55;100798.69;4975496;28;20079;-85
2022/03/29 02:42:46;;;;;;;70.40;25.13;;;;;;;10.96;64.25;100814.97;4974658;28;20133;-85
2022/03/29 02:45:13;;;;;;;46.75;26.63;;;;;;;10.82;63.93;100780.25;4975825;28;20027;-84
2022/03/29 02:47:38;;;;;;;60.50;24.05;;;;;;;10.89;63.79;100787.69;4978524;28;20412;-85
2022/03/29 02:50:04;;;;;;;47.33;23.98;;;;;;;10.98;63.40;100801.41;4979198;28;20035;-85
2022/03/29 02:52:30;;;;;;;69.53;23.73;;;;;;;10.87;63.28;100800.41;4990584;28;20038;-84
2022/03/29 02:54:55;;;;;;;59.50;23.95;;;;;;;11.05;63.64;100802.59;4980208;28;20037;-85
2022/03/29 02:57:20;;;;;;;55.72;23.38;;;;;;;10.88;63.72;100763.63;4978552;28;20030;-86
2022/03/29 02:59:46;;;;;;;57.67;25.35;;;;;;;11.11;63.63;100792.19;4982706;28;20030;-84
2022/03/29 03:02:12;;;;;;;55.35;24.65;;;;;;;11.01;63.35;100774.25;4979016;28;20459;-87
2022/03/29 03:04:37;;;;;;;52.85;22.23;;;;;;;10.87;63.40;100734.97;4962717;28;20026;-88
2022/03/29 03:07:03;;;;;;;48.53;22.30;;;;;;;11.10;63.02;100792.34;4978750;28;20027;-83
2022/03/29 03:09:29;;;;;;;58.30;25.80;;;;;;;11.01;62.97;100776.94;4978251;28;20034;-85
2022/03/29 03:11:55;;;;;;;56.92;28.58;;;;;;;10.89;63.15;100758.09;4977737;28;20022;-84
2022/03/29 03:14:20;;;;;;;53.72;27.00;;;;;;;10.96;62.91;100754.91;4977808;28;20109;-86
2022/03/29 03:16:46;;;;;;;63.58;29.92;;;;;;;10.89;62.81;100743.78;4977665;28;20540;-87
2022/03/29 03:19:12;;;;;;;55.90;26.80;;;;;;;10.89;62.85;100739.25;4978494;28;20540;-85
2022/03/29 03:21:40;;;;;;;71.03;35.20;;;;;;;11.24;63.19;100801.00;4978199;28;20092;-83
2022/03/29 03:24:07;;;;;;;62.38;31.40;;;;;;;11.25;62.90;100788.41;4986178;28;20047;-82
2022/03/29 03:26:33;;;;;;;59.50;29.88;;;;;;;11.15;62.75;100771.28;4991184;28;20044;-87
2022/03/29 03:28:58;;;;;;;58.85;29.42;;;;;;;11.30;62.88;100786.19;4991002;28;20030;-82
2022/03/29 03:31:24;;;;;;;66.85;29.55;;;;;;;11.31;62.87;100777.13;4987373;28;20058;-86
2022/03/29 03:33:49;;;;;;;54.58;30.27;;;;;;;11.39;62.44;100788.13;4977023;28;20027;-84
2022/03/29 03:36:14;;;;;;;68.80;28.85;;;;;;;11.25;62.11;100766.88;4977088;28;20030;-82
2022/03/29 03:38:40;;;;;;;71.45;30.35;;;;;;;11.24;62.43;100762.44;4976602;28;20404;-82
2022/03/29 03:41:05;;;;;;;69.43;28.75;;;;;;;11.35;61.45;100783.97;4977883;28;20398;-82
2022/03/29 03:43:31;;;;;;;61.00;28.67;;;;;;;11.32;61.63;100784.22;4960038;28;20912;-85
2022/03/29 03:45:57;;;;;;;71.20;27.67;;;;;;;11.30;61.54;100783.50;4976603;28;20481;-86
2022/03/29 03:48:23;;;;;;;69.95;25.30;;;;;;;10.88;61.77;100742.94;4978368;28;20055;-95
2022/03/29 03:50:48;;;;;;;61.55;28.20;;;;;;;10.83;61.55;100734.38;4966746;28;20026;-88
2022/03/29 03:53:14;;;;;;;102.05;31.40;;;;;;;10.87;61.28;100730.47;4985609;28;20599;-86
2022/03/29 03:55:40;;;;;;;88.15;28.40;;;;;;;11.21;61.83;100786.94;4976704;28;20432;-84
2022/03/29 03:58:05;;;;;;;56.85;26.60;;;;;;;11.10;61.99;100766.25;4976843;28;20034;-87
2022/03/29 04:00:31;;;;;;;59.70;25.38;;;;;;;10.91;62.24;100742.69;4966387;28;20027;-90
2022/03/29 04:02:57;;;;;;;51.03;26.20;;;;;;;10.86;62.41;100728.75;4966779;28;20031;-84
2022/03/29 04:05:26;;;;;;;93.07;26.70;;;;;;;10.87;62.50;100734.97;4959553;28;20125;-87
2022/03/29 04:07:52;;;;;;;61.38;26.60;;;;;;;10.69;62.51;100726.56;4963249;28;20114;-86
2022/03/29 04:10:17;;;;;;;83.63;27.48;;;;;;;10.70;62.80;100735.50;4959979;28;20519;-86
2022/03/29 04:12:42;;;;;;;100.10;33.13;;;;;;;10.26;63.29;100679.88;4959056;28;20030;-86
2022/03/29 04:15:08;;;;;;;81.90;31.48;;;;;;;10.86;63.06;100770.94;4976026;28;20027;-87
2022/03/29 04:17:34;;;;;;;114.53;31.40;;;;;;;10.94;62.63;100784.66;4976208;28;20058;-85
2022/03/29 04:20:01;;;;;;;90.55;31.63;;;;;;;10.90;62.59;100767.03;4961265;28;20440;-85
2022/03/29 04:22:26;;;;;;;112.35;29.52;;;;;;;10.97;62.89;100773.63;4977116;28;20034;-87
2022/03/29 04:24:52;;;;;;;72.82;28.55;;;;;;;10.87;62.86;100748.44;4960991;28;20029;-86
2022/03/29 04:27:18;;;;;;;68.53;28.38;;;;;;;11.06;63.14;100777.41;4977574;28;20039;-86
2022/03/29 04:29:44;;;;;;;87.68;29.30;;;;;;;11.11;63.55;100769.81;4982777;28;20022;-86
2022/03/29 04:32:10;;;;;;;84.05;30.63;;;;;;;11.13;63.62;100778.63;4990792;28;20022;-86
2022/03/29 04:34:36;;;;;;;105.03;28.33;;;;;;;11.23;63.34;100774.19;4977514;28;20119;-86
2022/03/29 04:37:02;;;;;;;82.68;27.75;;;;;;;11.20;64.00;100763.69;4977044;28;20494;-87
2022/03/29 04:39:28;;;;;;;83.80;30.23;;;;;;;11.34;63.72;100779.56;4979042;28;20097;-86
2022/03/29 04:41:53;;;;;;;52.55;24.70;;;;;;;10.77;63.04;100664.06;4976389;28;20047;-86
2022/03/29 04:44:20;;;;;;;68.85;26.80;;;;;;;11.13;63.48;100717.56;4975325;28;20019;-86
2022/03/29 04:46:46;;;;;;;81.03;29.25;;;;;;;11.53;63.16;100770.84;4976258;28;20077;-85
2022/03/29 04:49:11;;;;;;;102.03;33.70;;;;;;;11.30;62.31;100724.25;4979617;28;20026;-86
2022/03/29 04:51:37;;;;;;;73.78;30.60;;;;;;;11.47;62.52;100734.47;4985636;28;20104;-86
2022/03/29 04:54:03;;;;;;;114.05;33.35;;;;;;;11.13;62.74;100681.72;4989825;28;20023;-86
2022/03/29 04:56:29;;;;;;;107.45;32.35;;;;;;;11.44;62.20;100718.56;4978682;28;20027;-87
2022/03/29 04:58:54;;;;;;;78.80;33.30;;;;;;;11.74;62.20;100752.91;4982552;28;20027;-85
2022/03/29 05:01:20;;;;;;;82.20;30.92;;;;;;;11.69;62.24;100734.38;4991809;28;20182;-84
2022/03/29 05:03:46;;;;;;;87.55;32.25;;;;;;;11.91;61.58;100746.94;4991315;28;20007;-85
2022/03/29 05:06:11;;;;;;;90.57;31.40;;;;;;;12.04;62.01;100746.75;4989337;28;20035;-85
2022/03/29 05:08:36;;;;;;;89.35;34.13;;;;;;;11.82;61.47;100702.75;4976519;28;20037;-86
2022/03/29 05:11:02;;;;;;;120.82;34.45;;;;;;;12.15;61.22;100736.75;4974175;28;20506;-86
2022/03/29 05:13:28;;;;;;;109.15;32.25;;;;;;;12.12;61.09;100709.19;4975811;28;20030;-85
2022/03/29 05:15:54;;;;;;;110.57;33.35;;;;;;;12.17;61.16;100690.78;4975583;28;20081;-86
2022/03/29 05:18:19;;;;;;;138.70;36.92;;;;;;;12.26;60.82;100711.56;4976088;28;20019;-86
2022/03/29 05:20:45;;;;;;;93.47;34.13;;;;;;;12.43;60.60;100710.94;4973935;28;20031;-86
2022/03/29 05:23:10;;;;;;;184.65;38.53;;;;;;;12.36;60.27;100685.47;4973542;28;20062;-85
2022/03/29 05:25:36;;;;;;;154.10;38.03;;;;;;;12.53;60.32;100695.66;4975170;28;20035;-86
2022/03/29 05:28:02;;;;;;;138.93;34.97;;;;;;;12.95;59.65;100751.22;4973487;28;20110;-86
2022/03/29 05:30:28;;;;;;;137.10;36.83;;;;;;;13.00;59.76;100713.84;4974871;28;20080;-86
2022/03/29 05:33:00;;;;;;;243.00;39.85;;;;;;;13.15;59.25;100717.03;4975518;28;20420;-86
2022/03/29 05:35:33;;;;;;;550.03;61.77;;;;;;;13.13;58.98;100685.75;4975302;28;20488;-87
2022/03/29 05:38:00;;;;;;;293.13;48.75;;;;;;;13.25;58.16;100690.91;4973448;28;20641;-87
2022/03/29 05:40:26;;;;;;;256.45;43.70;;;;;;;13.59;58.12;100726.47;4973364;28;20456;-87
2022/03/29 05:42:52;;;;;;;272.60;50.40;;;;;;;13.72;57.70;100718.94;4975371;28;20465;-88
2022/03/29 05:45:19;;;;;;;299.30;43.50;;;;;;;13.74;56.85;100703.44;4973247;28;20409;-87
2022/03/29 05:50:29;;;;;;;198.23;39.65;;;;;;;14.11;55.58;100717.91;4976672;28;20118;-87
2022/03/29 05:52:56;;;;;;;101.03;32.58;;;;;;;14.24;55.08;100714.03;4976508;28;20485;-87
2022/03/29 05:55:22;;;;;;;86.00;31.17;;;;;;;14.13;54.30;100679.88;4974878;28;20027;-88
2022/03/29 05:57:49;;;;;;;67.00;26.30;;;;;;;14.31;53.55;100701.63;4974747;28;20023;-86
2022/03/29 06:00:17;;;;;;;83.93;23.15;;;;;;;14.19;52.76;100661.22;4974998;28;20088;-86
2022/03/29 06:02:43;;;;;;;37.30;16.10;;;;;;;14.26;51.60;100660.63;4973300;28;20027;-85
2022/03/29 06:05:09;;;;;;;65.38;21.17;;;;;;;14.34;51.35;100658.91;4973102;28;20022;-87
2022/03/29 06:07:35;;;;;;;61.72;26.38;;;;;;;14.23;51.02;100625.75;4975462;28;20031;-87
2022/03/29 06:10:03;;;;;;;58.10;22.73;;;;;;;14.66;50.66;100686.44;4989433;28;20078;-86
2022/03/29 06:12:29;;;;;;;65.20;21.73;;;;;;;14.69;50.05;100672.59;4981238;28;20030;-86
2022/03/29 06:14:54;;;;;;;42.22;14.60;;;;;;;14.67;49.17;100657.50;4977736;28;20023;-86
2022/03/29 06:17:20;;;;;;;47.22;18.08;;;;;;;14.76;48.67;100674.69;4974937;28;20065;-86
2022/03/29 06:19:45;;;;;;;43.15;17.55;;;;;;;15.01;49.00;100695.66;4974669;28;20027;-86
2022/03/29 06:22:11;;;;;;;43.90;16.08;;;;;;;14.84;48.51;100651.28;4976822;28;20106;-87
2022/03/29 06:24:37;;;;;;;37.55;13.90;;;;;;;14.78;48.43;100638.34;4977628;28;20128;-87
2022/03/29 06:27:03;;;;;;;31.85;14.45;;;;;;;14.81;47.93;100648.00;4979376;28;20078;-88
2022/03/29 06:29:29;;;;;;;36.55;14.25;;;;;;;14.99;47.14;100670.56;4983863;28;20047;-85
2022/03/29 06:31:54;;;;;;;38.47;16.77;;;;;;;14.86;47.43;100643.84;4991800;28;20023;-85
2022/03/29 06:34:21;;;;;;;51.63;16.45;;;;;;;15.15;47.25;100671.59;4992301;28;20041;-85
2022/03/29 06:36:46;;;;;;;27.33;15.30;;;;;;;14.75;47.14;100598.03;4990938;28;20097;-85
2022/03/29 06:39:13;;;;;;;68.93;18.40;;;;;;;14.97;46.42;100635.53;4989563;28;20062;-87
2022/03/29 06:41:40;;;;;;;49.30;15.43;;;;;;;15.34;46.60;100680.59;4981036;28;20387;-88
2022/03/29 06:44:07;;;;;;;43.13;15.73;;;;;;;15.51;46.50;100704.16;4981570;28;20023;-85
2022/03/29 06:46:34;;;;;;;48.17;16.58;;;;;;;15.58;46.26;100702.56;4989178;28;20159;-85
2022/03/29 06:49:02;;;;;;;58.45;15.93;;;;;;;15.23;46.14;100641.88;4978682;28;20559;-86
2022/03/29 06:51:29;;;;;;;50.47;16.33;;;;;;;15.44;45.84;100648.88;4977971;28;20571;-88
2022/03/29 06:53:54;;;;;;;44.15;17.38;;;;;;;15.48;45.74;100655.69;4976483;28;20058;-87
2022/03/29 06:56:20;;;;;;;48.28;15.88;;;;;;;15.34;45.72;100619.13;4977483;28;20031;-86
2022/03/29 06:58:45;;;;;;;51.13;17.52;;;;;;;15.65;45.65;100655.69;4977514;28;20022;-87
2022/03/29 07:01:11;;;;;;;43.15;15.68;;;;;;;16.03;45.32;100705.13;4978168;28;20440;-87
2022/03/29 07:03:36;;;;;;;59.83;18.95;;;;;;;15.35;44.93;100572.03;4978947;28;20037;-89
2022/03/29 07:06:05;;;;;;;42.45;16.85;;;;;;;15.68;44.67;100608.44;4977723;28;20022;-88
2022/03/29 07:08:32;;;;;;;57.63;18.08;;;;;;;16.11;44.15;100656.38;4979055;28;20031;-89
2022/03/29 07:11:17;;;;;;;49.92;16.92;;;;;;;16.18;43.73;100647.41;4977015;28;20036;-88
2022/03/29 07:13:44;;;;;;;41.22;15.77;;;;;;;16.24;43.68;100633.22;4976132;28;20063;-89
2022/03/29 07:16:10;;;;;;;37.35;15.55;;;;;;;16.24;42.73;100622.34;4977394;28;20029;-87
2022/03/29 07:18:36;;;;;;;28.73;13.90;;;;;;;16.26;42.10;100608.63;4976436;28;20030;-89
2022/03/29 07:21:02;;;;;;;30.77;13.48;;;;;;;16.18;41.63;100590.44;4977870;28;20027;-89
2022/03/29 07:23:29;;;;;;;37.83;12.52;;;;;;;16.32;41.24;100608.84;4977610;28;20033;-89
2022/03/29 07:25:56;;;;;;;41.80;13.63;;;;;;;16.59;41.26;100647.69;4977525;28;20027;-89
2022/03/29 07:28:23;;;;;;;39.55;14.75;;;;;;;16.60;41.88;100633.09;4977451;28;20066;-88
2022/03/29 07:30:49;;;;;;;35.20;15.10;;;;;;;16.52;41.93;100592.28;4981685;28;20030;-88
2022/03/29 07:33:17;;;;;;;30.50;12.93;;;;;;;16.62;41.67;100595.75;4987459;28;20023;-86
2022/03/29 07:35:44;;;;;;;40.75;12.23;;;;;;;16.56;41.14;100567.41;4979166;28;20420;-89
2022/03/29 07:38:13;;;;;;;34.45;13.85;;;;;;;17.05;41.16;100630.00;4977918;28;20022;-88
2022/03/29 07:40:40;;;;;;;24.50;10.75;;;;;;;16.96;40.97;100606.56;4983325;28;20058;-88
2022/03/29 07:43:08;;;;;;;32.15;11.93;;;;;;;17.17;41.11;100632.25;4975687;28;20154;-89
2022/03/29 07:45:34;;;;;;;28.05;12.63;;;;;;;17.17;41.13;100615.94;4975773;28;20400;-88
2022/03/29 07:48:02;;;;;;;24.92;13.68;;;;;;;17.06;41.25;100564.63;4978437;28;20029;-89
2022/03/29 07:50:28;;;;;;;21.75;12.00;;;;;;;16.98;40.78;100532.00;4989436;28;20086;-90
2022/03/29 07:52:57;;;;;;;43.40;13.20;;;;;;;17.33;40.58;100558.88;5000054;28;20030;-89
2022/03/29 07:55:24;;;;;;;25.63;12.07;;;;;;;17.47;40.46;100583.66;4992282;28;20019;-89
2022/03/29 07:57:49;;;;;;;36.00;11.13;;;;;;;17.61;40.48;100558.56;4976530;28;20030;-90
2022/03/29 08:00:34;;;;;;;25.42;10.60;;;;;;;17.80;39.83;100563.59;4979087;28;20026;-88
2022/03/29 08:03:08;;;;;;;24.17;11.07;;;;;;;18.12;39.73;100601.66;4987459;28;20022;-89
2022/03/29 08:05:34;;;;;;;30.33;10.73;;;;;;;18.10;39.39;100606.44;4986773;28;20113;-88
2022/03/29 08:08:01;;;;;;;29.88;10.98;;;;;;;18.05;39.13;100597.91;4985890;28;20022;-88
2022/03/29 08:10:28;;;;;;;26.17;10.50;;;;;;;17.90;39.19;100556.97;4976352;28;20086;-88
2022/03/29 08:12:59;;;;;;;22.60;10.32;;;;;;;18.10;39.33;100565.59;4976010;28;20026;-90
2022/03/29 08:15:25;;;;;;;20.02;11.40;;;;;;;18.05;39.26;100524.44;4977265;28;20030;-90
2022/03/29 08:17:51;;;;;;;34.05;10.30;;;;;;;18.27;38.64;100534.56;4980383;28;20023;-85
2022/03/29 08:20:17;;;;;;;28.52;10.45;;;;;;;18.30;38.76;100534.22;4978832;28;20572;-88
2022/03/29 08:22:46;;;;;;;21.83;10.07;;;;;;;18.59;38.35;100573.59;4975679;28;20023;-89
2022/03/29 08:25:18;;;;;;;21.25;10.30;;;;;;;18.60;38.48;100587.03;4978607;28;20058;-89
2022/03/29 08:27:55;;;;;;;28.52;11.32;;;;;;;18.67;38.49;100584.44;4991555;28;20027;-87
2022/03/29 08:30:25;;;;;;;35.40;11.85;;;;;;;18.65;38.51;100570.16;4981913;28;20512;-88
2022/03/29 08:32:51;;;;;;;27.52;12.05;;;;;;;18.47;38.70;100552.16;4976680;28;20509;-88
2022/03/29 08:35:17;;;;;;;29.65;12.57;;;;;;;18.47;38.93;100554.88;4975662;28;20140;-86
2022/03/29 08:37:42;;;;;;;23.02;12.57;;;;;;;18.61;39.24;100557.91;4988808;28;20111;-87
2022/03/29 08:40:16;;;;;;;33.67;13.25;;;;;;;18.46;39.17;100528.69;4981958;28;20085;-87
2022/03/29 08:42:43;;;;;;;36.38;11.73;;;;;;;18.82;38.91;100566.31;4976004;28;20046;-88
2022/03/29 08:45:11;;;;;;;34.97;12.95;;;;;;;18.64;38.75;100511.25;4985729;28;20182;-88
2022/03/29 08:47:42;;;;;;;37.45;15.88;;;;;;;18.66;40.04;100520.09;4979411;28;20026;-87
2022/03/29 08:50:09;;;;;;;43.88;14.48;;;;;;;18.98;40.62;100536.25;4983752;28;20085;-87
2022/03/29 08:52:35;;;;;;;39.17;16.15;;;;;;;19.02;41.35;100541.13;4975483;28;20027;-87
2022/03/29 08:55:08;;;;;;;47.53;16.50;;;;;;;18.75;42.52;100522.59;4980444;28;20033;-87
2022/03/29 08:57:35;;;;;;;42.90;17.13;;;;;;;18.86;42.69;100532.25;4977046;28;20488;-86
2022/03/29 09:00:00;;;;;;;51.88;17.38;;;;;;;18.61;42.26;100465.31;4976146;28;20031;-87
2022/03/29 09:02:32;;;;;;;54.42;20.38;;;;;;;18.95;42.40;100517.53;4976401;28;20034;-87
2022/03/29 09:05:07;;;;;;;62.15;18.75;;;;;;;19.18;41.98;100533.84;4976029;28;20023;-87
2022/03/29 09:08:13;;;;;;;61.25;18.20;;;;;;;18.87;43.30;100523.00;4973941;28;20042;-88
2022/03/29 09:10:49;;;;;;;47.53;18.23;;;;;;;18.69;43.90;100544.25;4896872;29;20124;-88
2022/03/29 09:13:26;;;;;;;49.15;15.32;;;;;;;18.12;45.25;100535.47;4897873;29;20510;-88
2022/03/29 09:15:54;;;;;;;45.00;12.80;;;;;;;17.21;47.22;100554.81;4951856;28;20039;-87
2022/03/29 09:18:20;;;;;;;41.53;14.30;;;;;;;17.10;47.20;100546.97;4988788;28;20097;-88
2022/03/29 09:21:04;;;;;;;54.28;13.02;;;;;;;16.72;47.49;100529.44;4992359;28;20092;-87
2022/03/29 09:23:30;;;;;;;54.15;13.18;;;;;;;16.52;47.92;100511.69;4985976;28;20093;-87
2022/03/29 09:25:56;;;;;;;42.10;13.57;;;;;;;16.51;47.63;100517.28;4984703;28;20066;-87
2022/03/29 09:28:21;;;;;;;84.97;20.33;;;;;;;16.31;47.67;100479.56;4982446;28;20031;-86
2022/03/29 09:30:50;;;;;;;52.75;15.50;;;;;;;16.53;48.34;100520.69;4984879;28;20065;-86
2022/03/29 09:33:20;;;;;;;46.25;15.15;;;;;;;16.62;48.26;100525.16;4991677;28;20117;-86
2022/03/29 09:35:59;;;;;;;41.47;14.45;;;;;;;16.76;47.92;100524.50;4985466;28;20027;-88
2022/03/29 09:38:30;;;;;;;54.85;14.82;;;;;;;16.78;47.46;100519.75;4982665;28;20103;-86
2022/03/29 09:41:02;;;;;;;46.83;15.45;;;;;;;16.75;47.49;100498.38;4977310;28;20097;-87
2022/03/29 09:43:29;;;;;;;43.92;13.88;;;;;;;16.59;47.45;100458.47;4978013;28;20031;-87
2022/03/29 09:46:10;;;;;;;39.22;14.77;;;;;;;16.94;47.75;100511.63;4987037;28;20050;-87
2022/03/29 09:48:41;;;;;;;39.65;13.65;;;;;;;17.15;47.27;100513.84;4981831;28;20046;-87
2022/03/29 09:51:18;;;;;;;50.53;14.75;;;;;;;17.19;46.78;100499.75;4984823;28;20023;-88
2022/03/29 09:53:51;;;;;;;39.25;16.23;;;;;;;16.80;46.98;100438.94;4975750;28;20400;-88
2022/03/29 09:56:20;;;;;;;47.67;20.73;;;;;;;17.44;46.79;100508.72;4981220;28;20023;-88
2022/03/29 09:58:46;;;;;;;50.53;17.30;;;;;;;17.60;46.47;100497.00;4981531;28;20027;-88
2022/03/29 10:01:25;;;;;;;54.33;15.15;;;;;;;17.39;46.80;100500.25;4978883;28;20482;-88
2022/03/29 10:03:54;;;;;;;55.67;17.35;;;;;;;17.17;46.21;100420.25;4979071;28;20031;-88
2022/03/29 10:06:23;;;;;;;38.97;15.07;;;;;;;17.34;45.53;100438.22;4979207;28;20033;-88
2022/03/29 10:11:43;;;;;;;26.77;13.87;;;;;;;17.95;44.68;100474.78;4980517;28;20085;-88
2022/03/29 10:14:12;;;;;;;33.47;14.57;;;;;;;17.87;44.46;100434.03;4988546;28;20061;-87
2022/03/29 10:16:38;;;;;;;31.65;12.38;;;;;;;17.63;43.44;100431.38;4989136;28;20085;-88
2022/03/29 10:19:04;;;;;;;48.35;20.67;;;;;;;18.09;43.40;100481.38;4979910;28;20042;-89
2022/03/29 10:21:30;;;;;;;43.60;14.63;;;;;;;18.21;43.28;100475.38;4978864;28;20165;-88
2022/03/29 10:23:58;;;;;;;44.42;14.93;;;;;;;18.19;42.72;100477.44;4978836;28;20023;-87
2022/03/29 10:26:26;;;;;;;43.95;14.15;;;;;;;18.08;42.56;100447.88;4978826;28;20054;-87
2022/03/29 10:28:52;;;;;;;29.73;12.10;;;;;;;18.09;42.28;100460.47;4988034;28;20035;-87
2022/03/29 10:31:29;;;;;;;38.95;13.02;;;;;;;18.05;42.23;100458.25;4989046;28;20045;-86
2022/03/29 10:34:30;;;;;;;32.80;12.60;;;;;;;18.01;42.32;100457.75;4977781;28;20057;-86
2022/03/29 10:37:23;;;;;;;42.22;12.15;;;;;;;18.18;42.14;100453.94;4978066;28;20381;-89
2022/03/29 10:39:56;;;;;;;46.17;12.43;;;;;;;18.54;41.86;100447.97;4977725;28;20035;-89
2022/03/29 10:42:31;;;;;;;40.78;12.57;;;;;;;18.83;41.37;100448.13;4977436;28;20082;-87
2022/03/29 10:44:58;;;;;;;30.20;13.02;;;;;;;18.82;41.01;100391.91;4976878;28;20126;-87
2022/03/29 10:47:30;;;;;;;34.33;13.43;;;;;;;18.91;40.37;100412.63;4978632;28;20031;-87
2022/03/29 10:49:56;;;;;;;44.85;13.15;;;;;;;19.20;40.16;100423.59;4979425;28;20027;-89
2022/03/29 10:52:21;;;;;;;50.28;13.43;;;;;;;19.45;40.11;100427.78;4979085;28;20035;-86
2022/03/29 10:54:48;;;;;;;33.95;14.07;;;;;;;19.55;39.66;100398.34;4978598;28;20093;-87
2022/03/29 10:57:14;;;;;;;44.40;13.48;;;;;;;19.91;39.31;100411.22;4979638;28;20030;-88
2022/03/29 10:59:40;;;;;;;35.17;13.75;;;;;;;19.80;38.59;100374.34;4978962;28;20035;-86
2022/03/29 11:02:22;;;;;;;41.28;13.90;;;;;;;19.84;37.97;100342.91;4978223;28;20038;-86
2022/03/29 11:05:07;;;;;;;34.38;13.98;;;;;;;20.51;37.56;100409.03;4987902;28;20037;-84
2022/03/29 11:07:59;;;;;;;34.78;13.32;;;;;;;20.79;36.98;100400.91;4986061;28;20030;-87
2022/03/29 11:10:43;;;;;;;44.63;15.43;;;;;;;20.91;36.58;100387.53;4950559;28;20039;-87
2022/03/29 11:13:27;;;;;;;29.38;13.15;;;;;;;21.14;36.34;100352.63;4988017;28;20125;-86
2022/03/29 11:15:53;;;;;;;31.70;11.75;;;;;;;21.69;35.53;100374.44;4977323;28;20035;-86
2022/03/29 11:18:31;;;;;;;32.38;13.00;;;;;;;22.04;34.49;100368.94;4977428;28;20404;-87
2022/03/29 11:21:04;;;;;;;27.58;11.48;;;;;;;21.95;34.23;100293.50;4979462;28;20074;-85
2022/03/29 11:23:34;;;;;;;29.10;11.55;;;;;;;22.51;33.94;100359.75;4979881;28;20026;-87
2022/03/29 11:26:14;;;;;;;30.73;11.85;;;;;;;22.31;33.42;100296.72;4978447;28;20034;-87
2022/03/29 11:28:50;;;;;;;42.75;14.70;;;;;;;22.49;32.57;100346.28;4977355;28;20015;-86